Time;durP1;ratioP1;P1;durP2;ratioP2;P2;SDS_P1;SDS_P2;PMS_P1;PMS_P2;Temp;Humidity;BMP_temperature;BMP_pressure;BME280_temperature;BME280_humidity;BME280_pressure;Samples;Min_cycle;Max_cycle;Signal;HPM_P1;HPM_P2
2021/03/31 00:02:14;;;;;;;23.25;11.25;;;14.90;59.30;;;;;;5073659;28;20077;-68
2021/03/31 00:04:40;;;;;;;22.08;11.35;;;14.90;59.40;;;;;;5085343;28;20116;-68
2021/03/31 00:07:10;;;;;;;21.45;10.25;;;14.80;59.40;;;;;;5095016;28;20051;-68
2021/03/31 00:09:36;;;;;;;25.35;11.25;;;14.80;59.30;;;;;;5094228;28;20107;-68
2021/03/31 00:12:03;;;;;;;26.45;11.15;;;14.80;59.20;;;;;;5094561;28;20020;-68
2021/03/31 00:14:29;;;;;;;29.92;10.77;;;14.80;59.00;;;;;;5094919;28;20054;-68
2021/03/31 00:16:54;;;;;;;21.83;11.10;;;14.80;59.00;;;;;;5093905;28;20369;-68
2021/03/31 00:19:20;;;;;;;20.85;9.93;;;14.80;59.00;;;;;;5094323;28;20030;-68
2021/03/31 00:21:46;;;;;;;19.65;10.60;;;14.80;59.10;;;;;;5094597;28;20020;-68
2021/03/31 00:24:11;;;;;;;21.65;11.35;;;14.70;59.10;;;;;;5093717;28;20431;-68
2021/03/31 00:26:37;;;;;;;21.23;11.00;;;14.70;59.30;;;;;;5094428;28;20067;-68
2021/03/31 00:29:03;;;;;;;26.65;11.90;;;14.70;59.40;;;;;;5094154;28;20042;-68
2021/03/31 00:31:29;;;;;;;30.08;12.07;;;14.60;59.40;;;;;;5076517;28;20373;-68
2021/03/31 00:33:54;;;;;;;23.35;11.07;;;14.60;59.50;;;;;;5074213;28;20365;-68
2021/03/31 00:36:20;;;;;;;22.30;11.07;;;14.50;59.60;;;;;;5073193;28;20028;-68
2021/03/31 00:38:46;;;;;;;19.70;10.13;;;14.50;59.70;;;;;;5074078;28;20033;-68
2021/03/31 00:41:11;;;;;;;21.75;10.52;;;14.50;59.60;;;;;;5073979;28;20101;-68
2021/03/31 00:43:37;;;;;;;22.30;11.48;;;14.50;59.50;;;;;;5073074;28;20074;-68
2021/03/31 00:46:03;;;;;;;23.98;11.10;;;14.50;59.50;;;;;;5073775;28;20056;-68
2021/03/31 00:48:29;;;;;;;22.02;10.60;;;14.40;59.50;;;;;;5073734;28;20043;-68
2021/03/31 00:50:57;;;;;;;21.00;10.90;;;14.40;59.50;;;;;;5073235;28;20059;-67
2021/03/31 00:53:36;;;;;;;22.98;11.18;;;14.30;59.60;;;;;;5073483;28;20064;-68
2021/03/31 00:56:02;;;;;;;22.23;10.68;;;14.30;59.60;;;;;;5073548;28;20028;-68
2021/03/31 00:58:28;;;;;;;25.35;11.43;;;14.30;59.60;;;;;;5079317;28;20431;-68
2021/03/31 01:00:54;;;;;;;24.92;11.38;;;14.30;59.60;;;;;;5073430;28;20036;-68
2021/03/31 01:03:20;;;;;;;19.08;9.82;;;14.30;59.60;;;;;;5073345;28;20377;-68
2021/03/31 01:05:46;;;;;;;26.40;10.35;;;14.20;59.50;;;;;;5072704;28;20441;-68
2021/03/31 01:08:11;;;;;;;22.77;11.40;;;14.20;59.30;;;;;;5055363;28;20032;-68
2021/03/31 01:10:42;;;;;;;24.55;11.23;;;14.10;59.30;;;;;;5073145;28;20158;-68
2021/03/31 01:13:30;;;;;;;23.60;11.23;;;14.10;59.30;;;;;;5072808;28;20037;-68
2021/03/31 01:16:16;;;;;;;16.35;9.45;;;14.10;59.30;;;;;;5072785;28;20491;-68
2021/03/31 01:18:55;;;;;;;20.33;10.43;;;14.10;59.10;;;;;;5072388;28;20047;-68
2021/03/31 01:21:53;;;;;;;22.27;11.13;;;14.10;59.10;;;;;;5073273;28;20256;-68
2021/03/31 01:24:33;;;;;;;22.33;10.48;;;14.00;59.10;;;;;;5072848;28;20044;-68
2021/03/31 01:27:12;;;;;;;24.42;11.32;;;14.00;59.20;;;;;;5072362;28;20029;-68
2021/03/31 01:30:18;;;;;;;21.05;11.27;;;13.90;59.30;;;;;;5073051;28;20380;-68
2021/03/31 01:33:09;;;;;;;24.95;11.80;;;13.90;59.50;;;;;;5072139;28;20082;-68
2021/03/31 01:35:34;;;;;;;23.75;11.23;;;13.90;59.70;;;;;;5072929;28;20422;-67
2021/03/31 01:38:05;;;;;;;22.20;11.90;;;13.80;59.80;;;;;;5072910;28;20032;-68
2021/03/31 01:40:35;;;;;;;25.45;12.82;;;13.80;59.80;;;;;;5072473;28;20082;-68
2021/03/31 01:43:10;;;;;;;23.95;11.10;;;13.70;59.80;;;;;;5072645;28;20449;-68
2021/03/31 01:45:38;;;;;;;22.38;11.77;;;13.80;59.90;;;;;;5072882;28;20115;-68
2021/03/31 01:48:16;;;;;;;29.52;12.88;;;13.70;60.00;;;;;;5071865;28;20085;-67
2021/03/31 01:50:46;;;;;;;23.92;13.15;;;13.70;60.20;;;;;;5072702;28;20491;-68
2021/03/31 01:53:13;;;;;;;27.48;12.80;;;13.70;60.50;;;;;;5072696;28;20385;-68
2021/03/31 01:55:40;;;;;;;33.05;14.05;;;13.60;60.60;;;;;;5071540;28;20063;-68
2021/03/31 01:58:07;;;;;;;34.60;15.40;;;13.60;60.80;;;;;;5072765;28;20029;-68
2021/03/31 02:00:33;;;;;;;34.15;14.73;;;13.60;61.10;;;;;;5072331;28;20090;-68
2021/03/31 02:03:00;;;;;;;29.67;15.05;;;13.60;61.20;;;;;;5072636;28;20090;-67
2021/03/31 02:05:27;;;;;;;30.00;15.48;;;13.50;61.30;;;;;;5072507;28;20029;-68
2021/03/31 02:07:53;;;;;;;33.67;14.27;;;13.50;61.50;;;;;;5053879;28;20055;-68
2021/03/31 02:10:23;;;;;;;28.10;13.90;;;13.50;61.60;;;;;;5072401;28;20028;-68
2021/03/31 02:12:50;;;;;;;31.35;13.68;;;13.40;61.70;;;;;;5072600;28;20099;-68
2021/03/31 02:15:21;;;;;;;26.63;12.95;;;13.40;61.80;;;;;;5071991;28;20052;-68
2021/03/31 02:17:49;;;;;;;28.75;13.82;;;13.40;61.90;;;;;;5072597;28;20039;-68
2021/03/31 02:20:16;;;;;;;23.33;12.05;;;13.40;61.90;;;;;;5072264;28;20499;-68
2021/03/31 02:22:43;;;;;;;29.63;12.85;;;13.40;61.70;;;;;;5076868;28;20032;-68
2021/03/31 02:25:11;;;;;;;25.02;12.90;;;13.40;61.50;;;;;;5092493;28;20391;-68
2021/03/31 02:27:37;;;;;;;27.50;11.82;;;13.40;61.40;;;;;;5092335;28;20531;-68
2021/03/31 02:30:08;;;;;;;20.92;11.73;;;13.30;61.30;;;;;;5092025;28;20040;-68
2021/03/31 02:32:35;;;;;;;27.02;14.48;;;13.30;61.30;;;;;;5092496;28;20039;-68
2021/03/31 02:35:02;;;;;;;32.30;13.07;;;13.40;61.50;;;;;;5092641;28;20108;-68
2021/03/31 02:37:29;;;;;;;24.40;13.25;;;13.30;61.70;;;;;;5091590;28;20040;-68
2021/03/31 02:39:56;;;;;;;25.80;13.77;;;13.30;61.70;;;;;;5074431;28;20059;-68
2021/03/31 02:42:25;;;;;;;27.13;13.27;;;13.30;61.80;;;;;;5092460;28;20093;-68
2021/03/31 02:44:53;;;;;;;24.92;12.52;;;13.30;61.70;;;;;;5091858;28;20028;-67
2021/03/31 02:47:25;;;;;;;25.23;12.52;;;13.20;61.50;;;;;;5092369;28;20475;-68
2021/03/31 02:49:55;;;;;;;22.30;11.70;;;13.20;61.40;;;;;;5091568;28;20046;-68
2021/03/31 02:52:22;;;;;;;26.65;12.65;;;13.20;61.30;;;;;;5092245;28;20739;-68
2021/03/31 02:54:49;;;;;;;27.05;13.38;;;13.10;61.30;;;;;;5092076;28;20078;-68
2021/03/31 02:57:15;;;;;;;24.80;14.00;;;13.10;61.40;;;;;;5091511;28;20119;-68
2021/03/31 02:59:42;;;;;;;30.17;14.65;;;13.10;61.60;;;;;;5091906;28;20082;-68
2021/03/31 03:02:11;;;;;;;32.00;14.90;;;13.10;61.90;;;;;;5092134;28;20031;-68
2021/03/31 03:04:38;;;;;;;28.10;13.40;;;13.10;63.00;;;;;;5091354;28;20454;-68
2021/03/31 03:07:06;;;;;;;30.05;14.68;;;13.00;62.50;;;;;;5075311;28;20468;-68
2021/03/31 03:09:32;;;;;;;31.25;15.38;;;13.00;62.90;;;;;;5075596;28;20064;-68
2021/03/31 03:11:59;;;;;;;33.22;14.95;;;12.90;63.10;;;;;;5074929;28;20034;-68
2021/03/31 03:14:26;;;;;;;29.33;13.95;;;12.90;63.40;;;;;;5075760;28;20035;-68
2021/03/31 03:16:52;;;;;;;28.98;14.70;;;12.90;63.50;;;;;;5075557;28;20033;-67
2021/03/31 03:19:18;;;;;;;36.30;14.07;;;12.80;63.70;;;;;;5074700;28;20035;-68
2021/03/31 03:21:44;;;;;;;29.17;14.13;;;12.80;63.80;;;;;;5075430;28;20035;-68
2021/03/31 03:24:14;;;;;;;32.97;15.13;;;12.80;64.00;;;;;;5075398;28;20044;-68
2021/03/31 03:26:40;;;;;;;31.67;14.63;;;12.80;64.00;;;;;;5074669;28;20491;-67
2021/03/31 03:29:09;;;;;;;27.65;13.20;;;12.80;63.90;;;;;;5075245;28;20498;-68
2021/03/31 03:31:37;;;;;;;36.40;14.25;;;12.80;63.80;;;;;;5075341;28;20024;-68
2021/03/31 03:34:06;;;;;;;23.92;13.07;;;12.80;63.60;;;;;;5074217;28;20025;-68
2021/03/31 03:36:32;;;;;;;26.42;12.73;;;12.70;63.30;;;;;;5075663;28;20360;-68
2021/03/31 03:38:58;;;;;;;25.25;11.43;;;12.80;63.20;;;;;;5074730;28;20494;-67
2021/03/31 03:41:24;;;;;;;22.17;11.70;;;12.70;62.90;;;;;;5075045;28;20048;-67
2021/03/31 03:43:54;;;;;;;25.15;12.60;;;12.70;62.80;;;;;;5075146;28;20044;-67
2021/03/31 03:46:21;;;;;;;23.67;12.82;;;12.60;62.70;;;;;;5074126;28;20036;-68
2021/03/31 03:48:47;;;;;;;39.70;13.35;;;12.60;62.70;;;;;;5074935;28;20415;-68
2021/03/31 03:51:13;;;;;;;26.70;13.73;;;12.50;62.80;;;;;;5074889;28;20028;-68
2021/03/31 03:53:38;;;;;;;33.10;13.85;;;12.50;63.00;;;;;;5074236;28;20031;-69
2021/03/31 03:56:10;;;;;;;26.92;14.80;;;12.50;63.20;;;;;;5074757;28;20051;-68
2021/03/31 03:58:36;;;;;;;33.00;14.13;;;12.50;63.40;;;;;;5074570;28;20492;-68
2021/03/31 04:01:01;;;;;;;26.35;12.13;;;12.40;63.40;;;;;;5075481;28;20032;-68
2021/03/31 04:03:27;;;;;;;23.90;13.10;;;12.40;63.40;;;;;;5091828;28;20403;-68
2021/03/31 04:05:53;;;;;;;26.27;13.48;;;12.40;63.30;;;;;;5092460;28;20027;-68
2021/03/31 04:08:18;;;;;;;28.83;13.85;;;12.40;63.20;;;;;;5093663;28;20020;-68
2021/03/31 04:10:50;;;;;;;32.85;14.63;;;12.30;63.10;;;;;;5089267;28;20092;-68
2021/03/31 04:13:15;;;;;;;36.05;13.48;;;12.40;63.10;;;;;;5090049;28;20039;-68
2021/03/31 04:15:45;;;;;;;29.95;15.32;;;12.30;63.10;;;;;;5076854;28;20029;-68
2021/03/31 04:18:14;;;;;;;34.35;16.35;;;12.30;63.40;;;;;;5075155;28;20113;-68
2021/03/31 04:20:41;;;;;;;32.72;15.07;;;12.30;63.60;;;;;;5076168;28;20020;-68
2021/03/31 04:23:07;;;;;;;37.53;16.83;;;12.30;63.90;;;;;;5074632;28;20052;-68
2021/03/31 04:25:33;;;;;;;28.05;15.00;;;12.30;64.00;;;;;;5075955;28;20029;-68
2021/03/31 04:28:02;;;;;;;32.38;16.52;;;12.30;64.10;;;;;;5075188;28;20541;-68
2021/03/31 04:30:29;;;;;;;38.88;15.57;;;12.20;64.30;;;;;;5074307;28;20036;-68
2021/03/31 04:32:59;;;;;;;34.13;16.10;;;12.20;64.30;;;;;;5075020;28;20522;-68
2021/03/31 04:35:25;;;;;;;28.90;15.23;;;12.20;64.30;;;;;;5074369;28;20028;-68
2021/03/31 04:37:51;;;;;;;27.25;13.45;;;12.20;64.30;;;;;;5075828;28;20072;-68
2021/03/31 04:40:19;;;;;;;27.23;12.88;;;12.20;64.00;;;;;;5074846;28;20048;-68
2021/03/31 04:42:45;;;;;;;24.67;12.63;;;12.10;63.70;;;;;;5074747;28;20036;-68
2021/03/31 04:45:13;;;;;;;22.80;12.20;;;12.10;64.10;;;;;;5074640;28;20036;-68
2021/03/31 04:47:38;;;;;;;28.42;14.13;;;12.20;63.50;;;;;;5075688;28;20112;-68
2021/03/31 04:50:07;;;;;;;27.05;13.45;;;12.10;63.40;;;;;;5074108;28;20108;-68
2021/03/31 04:52:33;;;;;;;25.08;13.38;;;12.10;63.40;;;;;;5089418;28;20032;-68
2021/03/31 04:55:02;;;;;;;30.63;14.55;;;12.10;63.40;;;;;;5074443;28;20475;-68
2021/03/31 04:57:36;;;;;;;28.40;12.90;;;12.10;63.40;;;;;;5073755;28;20028;-68
2021/03/31 05:00:04;;;;;;;27.30;13.38;;;12.00;63.30;;;;;;5074954;28;20480;-68
2021/03/31 05:02:30;;;;;;;28.58;14.80;;;12.00;63.40;;;;;;5074282;28;20060;-68
2021/03/31 05:04:55;;;;;;;30.33;13.23;;;12.00;63.50;;;;;;5074404;28;20059;-68
2021/03/31 05:07:21;;;;;;;25.50;13.40;;;11.90;63.60;;;;;;5073313;28;20052;-69
2021/03/31 05:09:47;;;;;;;23.85;12.73;;;11.90;63.50;;;;;;5073364;28;20111;-68
2021/03/31 05:12:12;;;;;;;23.45;12.07;;;11.90;64.10;;;;;;5072369;28;20039;-68
2021/03/31 05:14:38;;;;;;;20.25;11.50;;;11.90;63.40;;;;;;5084413;28;20024;-68
2021/03/31 05:17:04;;;;;;;23.65;11.57;;;11.80;63.30;;;;;;5089682;28;20016;-68
2021/03/31 05:19:29;;;;;;;19.08;11.30;;;11.90;63.30;;;;;;5088748;28;20164;-67
2021/03/31 05:21:55;;;;;;;28.02;13.65;;;11.90;63.30;;;;;;5090532;28;20013;-68
2021/03/31 05:24:20;;;;;;;22.80;12.75;;;11.80;63.30;;;;;;5088731;28;20044;-67
2021/03/31 05:26:46;;;;;;;29.10;14.75;;;11.80;63.30;;;;;;5082193;28;20059;-67
2021/03/31 05:29:12;;;;;;;32.53;14.40;;;11.80;63.50;;;;;;5080695;28;20037;-68
2021/03/31 05:31:37;;;;;;;42.22;15.98;;;11.80;63.60;;;;;;5082766;28;20498;-68
2021/03/31 05:34:03;;;;;;;35.85;16.63;;;11.70;63.60;;;;;;5088802;28;20024;-68
2021/03/31 05:36:29;;;;;;;38.80;16.23;;;11.80;63.70;;;;;;5089464;28;20051;-68
2021/03/31 05:38:54;;;;;;;33.78;15.30;;;11.70;63.70;;;;;;5089609;28;20032;-68
2021/03/31 05:41:20;;;;;;;33.45;14.48;;;11.80;63.70;;;;;;5089610;28;20479;-68
2021/03/31 05:43:46;;;;;;;31.02;13.68;;;11.80;63.70;;;;;;5091022;28;20433;-68
2021/03/31 05:46:13;;;;;;;37.05;14.50;;;11.70;63.60;;;;;;5090033;28;20054;-68
2021/03/31 05:48:38;;;;;;;30.75;13.90;;;11.70;63.50;;;;;;5072725;28;20032;-68
2021/03/31 05:51:04;;;;;;;25.40;13.27;;;11.70;63.50;;;;;;5090419;28;20035;-67
2021/03/31 05:53:30;;;;;;;28.27;14.57;;;11.70;63.50;;;;;;5091264;28;20039;-68
2021/03/31 05:55:56;;;;;;;29.20;13.35;;;11.70;63.60;;;;;;5092096;28;20035;-68
2021/03/31 05:58:22;;;;;;;32.63;14.10;;;11.70;63.70;;;;;;5087286;28;20058;-67
2021/03/31 06:00:48;;;;;;;26.65;14.18;;;11.70;63.90;;;;;;5089332;28;20063;-67
2021/03/31 06:03:14;;;;;;;23.65;12.93;;;11.60;64.00;;;;;;5089736;28;20036;-68
2021/03/31 06:05:40;;;;;;;34.03;13.48;;;11.60;64.10;;;;;;5089022;28;20107;-68
2021/03/31 06:08:06;;;;;;;25.00;13.98;;;11.60;64.20;;;;;;5090133;28;20032;-68
2021/03/31 06:10:31;;;;;;;27.92;13.70;;;11.60;64.40;;;;;;5090483;28;20059;-68
2021/03/31 06:13:01;;;;;;;25.48;13.50;;;11.60;64.60;;;;;;5090466;28;20065;-68
2021/03/31 06:15:46;;;;;;;29.45;13.23;;;11.60;64.80;;;;;;5088972;28;20039;-70
2021/03/31 06:18:15;;;;;;;29.33;14.35;;;11.60;65.00;;;;;;5088826;28;20043;-68
2021/03/31 06:20:41;;;;;;;26.58;13.40;;;11.60;65.10;;;;;;5090987;28;20024;-67
2021/03/31 06:26:31;;;;;;;29.17;15.25;;;11.60;65.60;;;;;;5084306;28;20498;-68
2021/03/31 06:29:05;;;;;;;32.42;15.98;;;11.60;65.40;;;;;;5086995;28;20077;-68
2021/03/31 06:31:36;;;;;;;30.02;15.13;;;11.60;65.30;;;;;;5087788;28;20375;-68
2021/03/31 06:34:07;;;;;;;27.08;15.70;;;11.60;65.20;;;;;;5089637;28;20074;-68
2021/03/31 06:37:04;;;;;;;31.92;15.18;;;11.60;65.20;;;;;;5090041;28;20043;-68
2021/03/31 06:39:35;;;;;;;27.52;14.93;;;11.60;65.20;;;;;;5090324;28;20036;-67
2021/03/31 06:42:12;;;;;;;29.13;14.85;;;11.60;65.10;;;;;;5091733;28;20475;-68
2021/03/31 06:49:46;;;;;;;30.45;15.57;;;11.70;64.70;;;;;;5093065;28;21185;-68
2021/03/31 06:52:12;;;;;;;30.35;14.20;;;11.70;64.40;;;;;;5092863;28;20572;-67
2021/03/31 06:54:48;;;;;;;30.10;14.95;;;11.70;64.00;;;;;;5092573;28;20387;-67
2021/03/31 06:57:24;;;;;;;33.20;14.95;;;11.70;64.00;;;;;;5094152;28;20382;-68
2021/03/31 06:59:57;;;;;;;36.35;15.85;;;11.80;63.80;;;;;;5073179;28;20540;-68
2021/03/31 07:02:24;;;;;;;48.63;16.30;;;11.80;63.50;;;;;;5098298;28;20023;-68
2021/03/31 07:04:50;;;;;;;43.70;16.70;;;11.80;63.50;;;;;;5092691;28;20027;-67
2021/03/31 07:07:16;;;;;;;30.33;15.35;;;11.80;63.50;;;;;;5096464;28;20025;-68
2021/03/31 07:09:43;;;;;;;34.00;15.93;;;11.90;63.50;;;;;;5093760;28;20032;-67
2021/03/31 07:12:19;;;;;;;33.95;15.63;;;11.90;63.50;;;;;;5080810;28;20030;-67
2021/03/31 07:14:50;;;;;;;32.53;15.40;;;11.90;63.40;;;;;;5092224;28;20448;-68
2021/03/31 07:17:24;;;;;;;27.77;16.00;;;12.00;63.50;;;;;;5079484;28;20063;-68
2021/03/31 07:19:51;;;;;;;25.45;13.65;;;12.00;63.60;;;;;;5085609;28;20040;-68
2021/03/31 07:22:17;;;;;;;38.17;15.38;;;12.00;63.50;;;;;;5089753;28;20066;-68
2021/03/31 07:24:43;;;;;;;38.85;15.43;;;12.10;63.40;;;;;;5074887;28;20047;-67
2021/03/31 07:27:11;;;;;;;33.90;15.25;;;12.10;63.50;;;;;;5075908;28;20029;-68
2021/03/31 07:29:41;;;;;;;47.38;16.73;;;12.20;63.50;;;;;;5075446;28;20386;-67
2021/03/31 07:32:08;;;;;;;34.95;16.00;;;12.20;63.20;;;;;;5087699;28;20107;-68
2021/03/31 07:34:38;;;;;;;31.27;15.27;;;12.30;63.40;;;;;;5095825;28;20040;-68
2021/03/31 07:37:04;;;;;;;40.40;15.77;;;12.30;63.60;;;;;;5075192;28;20111;-68
2021/03/31 07:39:32;;;;;;;29.10;13.82;;;12.30;63.60;;;;;;5075413;28;20119;-68
2021/03/31 07:41:59;;;;;;;30.15;14.77;;;12.40;63.60;;;;;;5074924;28;20089;-73
2021/03/31 07:44:31;;;;;;;26.10;13.60;;;12.40;63.70;;;;;;5087207;28;20071;-73
2021/03/31 07:46:58;;;;;;;30.17;14.05;;;12.50;63.90;;;;;;5089595;28;20069;-75
2021/03/31 07:49:25;;;;;;;34.72;15.25;;;12.50;64.00;;;;;;5091790;28;20064;-74
2021/03/31 07:51:57;;;;;;;27.00;12.55;;;12.60;63.90;;;;;;5056354;28;20028;-74
2021/03/31 07:54:23;;;;;;;37.30;14.77;;;12.70;64.10;;;;;;5096946;28;20024;-74
2021/03/31 07:56:49;;;;;;;37.33;16.10;;;12.70;64.20;;;;;;5075339;28;20396;-74
2021/03/31 07:59:16;;;;;;;36.30;14.82;;;12.80;64.20;;;;;;5075028;28;20111;-76
2021/03/31 08:02:05;;;;;;;33.95;15.75;;;12.80;64.30;;;;;;5059355;28;20028;-68
2021/03/31 08:04:32;;;;;;;28.25;15.27;;;12.90;64.20;;;;;;5092815;28;20135;-68
2021/03/31 08:07:21;;;;;;;31.17;14.75;;;12.90;64.30;;;;;;5084169;28;20020;-68
2021/03/31 08:09:48;;;;;;;33.00;15.38;;;13.10;64.20;;;;;;5083858;28;20115;-68
2021/03/31 08:12:43;;;;;;;28.35;15.15;;;13.10;64.10;;;;;;5082972;28;20044;-68
2021/03/31 08:15:09;;;;;;;34.15;15.80;;;13.20;64.20;;;;;;5078467;28;20072;-68
2021/03/31 08:17:34;;;;;;;34.25;16.35;;;13.20;64.40;;;;;;5080118;28;20090;-68
2021/03/31 08:20:04;;;;;;;32.85;16.45;;;13.20;64.40;;;;;;5081694;28;20036;-68
2021/03/31 08:22:36;;;;;;;28.65;15.35;;;13.30;64.30;;;;;;5081172;28;20068;-67
2021/03/31 08:25:15;;;;;;;26.83;13.80;;;13.30;64.60;;;;;;5074160;28;20429;-68
2021/03/31 08:27:59;;;;;;;35.00;15.82;;;13.40;64.70;;;;;;5074286;28;20089;-68
2021/03/31 08:30:25;;;;;;;30.95;15.65;;;13.40;64.90;;;;;;5085641;28;20060;-68
2021/03/31 08:32:53;;;;;;;29.25;14.65;;;13.50;65.10;;;;;;5079131;28;20452;-68
2021/03/31 08:35:20;;;;;;;32.97;17.35;;;13.50;64.90;;;;;;5089952;28;20037;-68
2021/03/31 08:37:48;;;;;;;32.65;17.05;;;13.60;65.10;;;;;;5081361;28;20024;-68
2021/03/31 08:40:14;;;;;;;34.22;17.30;;;13.60;65.20;;;;;;5086853;28;20032;-68
2021/03/31 08:42:51;;;;;;;31.20;15.35;;;13.70;65.20;;;;;;5084553;28;20040;-68
2021/03/31 08:45:29;;;;;;;34.55;16.63;;;13.70;65.10;;;;;;5083823;28;20479;-68
2021/03/31 08:47:58;;;;;;;32.30;15.90;;;13.80;65.20;;;;;;5084289;28;20028;-68
2021/03/31 08:50:33;;;;;;;31.13;15.52;;;13.90;65.30;;;;;;5090527;28;20434;-68
2021/03/31 08:53:04;;;;;;;28.48;13.68;;;13.90;65.00;;;;;;5089076;28;20024;-68
2021/03/31 08:55:31;;;;;;;29.90;15.02;;;14.00;64.70;;;;;;5081963;28;20388;-68
2021/03/31 08:57:57;;;;;;;30.85;15.40;;;14.00;64.50;;;;;;5062599;28;20035;-68
2021/03/31 09:00:23;;;;;;;30.67;14.25;;;14.10;64.60;;;;;;5076383;28;20068;-68
2021/03/31 09:02:49;;;;;;;34.95;16.35;;;14.10;64.70;;;;;;5078674;28;20032;-68
2021/03/31 09:05:15;;;;;;;28.33;14.50;;;14.20;65.10;;;;;;5075442;28;20028;-68
2021/03/31 09:07:41;;;;;;;33.38;18.00;;;14.30;65.20;;;;;;5072537;28;20085;-68
2021/03/31 09:10:11;;;;;;;32.33;17.00;;;14.30;65.00;;;;;;5071575;28;20126;-68
2021/03/31 09:12:37;;;;;;;33.20;16.75;;;14.50;65.20;;;;;;5072257;28;20039;-68
2021/03/31 09:15:03;;;;;;;30.83;14.00;;;14.50;65.30;;;;;;5087708;28;20032;-68
2021/03/31 09:17:32;;;;;;;30.45;15.57;;;14.60;65.30;;;;;;5075744;28;20020;-68
2021/03/31 09:20:06;;;;;;;31.70;15.45;;;14.70;65.60;;;;;;5081186;28;20448;-68
2021/03/31 09:22:33;;;;;;;42.10;17.30;;;14.70;65.10;;;;;;5084579;28;20115;-67
2021/03/31 09:25:06;;;;;;;23.60;12.65;;;14.80;65.20;;;;;;5087427;28;20028;-68
2021/03/31 09:27:33;;;;;;;27.83;15.20;;;14.90;65.00;;;;;;5081685;28;20064;-68
2021/03/31 09:30:04;;;;;;;30.70;15.80;;;14.80;65.00;;;;;;5086834;28;20031;-70
2021/03/31 09:32:34;;;;;;;30.42;14.05;;;14.90;65.10;;;;;;5091116;28;20418;-76
2021/03/31 09:35:17;;;;;;;32.35;15.20;;;15.00;65.00;;;;;;5092279;28;20392;-87
2021/03/31 09:37:50;;;;;;;33.63;15.70;;;15.00;64.30;;;;;;5089790;28;20059;-80
2021/03/31 09:40:22;;;;;;;30.25;15.93;;;15.10;64.20;;;;;;5087242;28;20039;-68
2021/03/31 09:42:54;;;;;;;39.15;16.83;;;15.20;64.30;;;;;;5086730;28;20032;-68
2021/03/31 09:45:23;;;;;;;34.50;15.35;;;15.20;64.30;;;;;;5070957;28;20471;-68
2021/03/31 09:47:50;;;;;;;33.53;15.05;;;15.30;64.10;;;;;;5087655;28;20436;-69
2021/03/31 09:50:15;;;;;;;33.53;16.27;;;15.40;64.30;;;;;;5085985;28;20420;-69
2021/03/31 09:52:41;;;;;;;31.60;16.27;;;15.50;64.20;;;;;;5088672;28;20054;-67
2021/03/31 09:55:13;;;;;;;35.30;17.20;;;15.60;64.10;;;;;;5088424;28;20103;-68
2021/03/31 09:57:41;;;;;;;27.80;16.20;;;15.70;63.90;;;;;;5087754;28;20028;-68
2021/03/31 10:00:09;;;;;;;33.20;16.15;;;15.80;63.90;;;;;;5076481;28;20563;-67
2021/03/31 10:02:39;;;;;;;34.97;16.95;;;15.80;63.30;;;;;;5080686;28;20431;-68
2021/03/31 10:05:14;;;;;;;34.90;16.02;;;15.90;62.70;;;;;;5078409;28;20046;-67
2021/03/31 10:07:40;;;;;;;37.00;17.05;;;16.00;62.80;;;;;;5071534;28;20028;-68
2021/03/31 10:10:08;;;;;;;33.45;17.63;;;16.10;63.00;;;;;;5089910;28;20032;-68
2021/03/31 10:12:35;;;;;;;30.23;15.43;;;16.20;62.70;;;;;;5083766;28;20074;-68
2021/03/31 10:15:06;;;;;;;34.63;15.10;;;16.20;62.30;;;;;;5088292;28;20077;-68
2021/03/31 10:17:32;;;;;;;35.33;15.15;;;16.30;62.60;;;;;;5087388;28;20488;-68
2021/03/31 10:20:14;;;;;;;37.47;16.27;;;16.30;63.00;;;;;;5087959;28;20424;-68
2021/03/31 10:22:41;;;;;;;29.65;14.40;;;16.30;62.90;;;;;;5087121;28;20057;-67
2021/03/31 10:25:21;;;;;;;34.33;14.55;;;16.30;63.40;;;;;;5087196;28;20028;-67
2021/03/31 10:27:47;;;;;;;39.42;17.33;;;16.30;63.30;;;;;;5085621;28;20028;-68
2021/03/31 10:30:22;;;;;;;30.83;14.55;;;16.30;63.30;;;;;;5085757;28;20633;-68
2021/03/31 10:32:48;;;;;;;35.08;14.93;;;16.30;62.80;;;;;;5085518;28;20025;-67
2021/03/31 10:35:15;;;;;;;41.13;17.48;;;16.40;62.20;;;;;;5087864;28;20073;-67
2021/03/31 10:37:52;;;;;;;33.67;15.35;;;16.40;60.60;;;;;;5080607;28;20383;-68
2021/03/31 10:53:38;;;;;;;31.45;15.70;;;17.10;59.30;;;;;;5088316;28;20038;-68
2021/03/31 10:56:04;;;;;;;27.70;13.60;;;17.20;57.90;;;;;;5085878;28;20028;-68
2021/03/31 10:58:30;;;;;;;31.48;15.50;;;17.30;57.40;;;;;;5082442;28;20035;-67
2021/03/31 11:00:56;;;;;;;39.47;15.73;;;17.40;57.00;;;;;;5085207;28;20047;-68
2021/03/31 11:03:23;;;;;;;29.50;14.05;;;17.60;56.50;;;;;;5076655;28;20384;-67
2021/03/31 11:05:50;;;;;;;27.50;13.10;;;17.60;56.40;;;;;;5095985;28;20024;-68
2021/03/31 11:08:15;;;;;;;32.65;12.55;;;17.60;58.70;;;;;;5089914;28;20036;-68
2021/03/31 11:10:41;;;;;;;29.00;13.88;;;17.60;59.70;;;;;;5087587;28;20375;-69
2021/03/31 11:13:07;;;;;;;30.23;14.88;;;17.60;59.70;;;;;;5088301;28;20455;-69
2021/03/31 11:15:33;;;;;;;28.02;14.27;;;17.50;59.10;;;;;;5086509;28;20027;-69
2021/03/31 11:20:57;;;;;;;27.40;13.95;;;17.70;57.80;;;;;;5085024;28;20028;-69
2021/03/31 11:26:07;;;;;;;38.08;11.35;;;17.80;58.50;;;;;;5091608;28;20365;-69
2021/03/31 11:28:36;;;;;;;30.23;13.93;;;17.80;58.10;;;;;;5090400;28;20031;-69
2021/03/31 11:31:03;;;;;;;31.15;12.90;;;17.80;57.20;;;;;;5088525;28;20033;-69
2021/03/31 11:33:28;;;;;;;33.92;13.77;;;17.90;55.70;;;;;;5092540;28;20032;-69
2021/03/31 11:35:54;;;;;;;30.92;14.73;;;18.10;55.20;;;;;;5090947;28;20375;-69
2021/03/31 11:38:20;;;;;;;29.42;12.65;;;18.10;55.00;;;;;;5090004;28;20058;-69
2021/03/31 11:40:46;;;;;;;35.65;14.50;;;18.30;56.10;;;;;;5092501;28;20024;-69
2021/03/31 11:43:14;;;;;;;30.95;14.13;;;18.30;55.80;;;;;;5090705;28;20495;-71
2021/03/31 11:45:40;;;;;;;33.10;15.57;;;18.30;53.90;;;;;;5081043;28;20518;-70
2021/03/31 11:48:06;;;;;;;30.92;15.63;;;18.50;52.30;;;;;;5088366;28;20024;-72
2021/03/31 11:50:31;;;;;;;35.67;17.40;;;18.60;51.30;;;;;;5089048;28;20071;-72
2021/03/31 11:52:57;;;;;;;33.72;15.02;;;18.70;51.10;;;;;;5088962;28;20028;-79
2021/03/31 11:55:23;;;;;;;32.90;13.65;;;18.80;50.50;;;;;;5102717;28;20035;-79
2021/03/31 11:57:49;;;;;;;32.60;15.77;;;18.90;53.00;;;;;;5092144;28;20031;-79
2021/03/31 12:00:16;;;;;;;35.20;15.48;;;18.90;54.70;;;;;;5084729;28;20052;-79
2021/03/31 12:02:43;;;;;;;29.02;13.05;;;18.90;55.50;;;;;;5093838;28;20036;-78
2021/03/31 12:05:09;;;;;;;31.73;14.77;;;18.90;55.30;;;;;;5088218;28;20035;-74
2021/03/31 12:07:35;;;;;;;36.00;16.88;;;18.90;55.80;;;;;;5091852;28;20058;-78
2021/03/31 12:10:06;;;;;;;29.40;13.68;;;19.00;53.50;;;;;;5088958;28;20057;-73
2021/03/31 12:12:32;;;;;;;29.08;13.70;;;19.10;55.20;;;;;;5086064;28;20036;-72
2021/03/31 12:14:58;;;;;;;31.63;15.55;;;19.10;53.70;;;;;;5099645;28;20024;-73
2021/03/31 12:17:23;;;;;;;33.58;14.35;;;19.20;53.30;;;;;;5083455;28;20115;-71
2021/03/31 12:19:49;;;;;;;28.90;13.88;;;19.30;51.60;;;;;;5089737;28;20031;-70
2021/03/31 12:22:15;;;;;;;29.40;12.52;;;19.40;51.30;;;;;;5088453;28;20073;-70
2021/03/31 12:24:40;;;;;;;25.55;13.30;;;19.50;55.00;;;;;;5090456;28;20039;-70
2021/03/31 12:27:08;;;;;;;27.50;13.52;;;19.50;56.20;;;;;;5090071;28;20036;-73
2021/03/31 12:29:35;;;;;;;29.45;13.82;;;19.50;57.60;;;;;;5086419;28;20041;-68
2021/03/31 12:32:01;;;;;;;32.30;14.38;;;19.50;56.10;;;;;;5081477;28;20104;-69
2021/03/31 12:34:28;;;;;;;30.48;14.90;;;19.50;57.40;;;;;;5080127;28;20107;-69
2021/03/31 12:36:55;;;;;;;33.47;16.08;;;19.60;56.10;;;;;;5080390;28;20082;-69
2021/03/31 12:39:21;;;;;;;38.78;15.88;;;19.70;54.10;;;;;;5082645;28;20028;-69
2021/03/31 12:41:46;;;;;;;31.92;13.57;;;19.70;51.70;;;;;;5078283;28;20031;-69
2021/03/31 12:44:12;;;;;;;33.92;15.02;;;19.80;51.50;;;;;;5083966;28;20470;-69
2021/03/31 12:46:38;;;;;;;27.48;13.45;;;20.00;51.30;;;;;;5079035;28;20028;-69
2021/03/31 12:49:04;;;;;;;30.42;14.15;;;20.00;49.90;;;;;;5081415;28;20479;-69
2021/03/31 12:51:34;;;;;;;29.58;12.65;;;20.10;50.10;;;;;;5080355;28;20063;-69
2021/03/31 12:54:23;;;;;;;29.42;15.48;;;20.20;54.30;;;;;;5080936;28;20089;-70
2021/03/31 12:56:49;;;;;;;30.42;14.15;;;20.30;52.00;;;;;;5077919;28;20492;-69
2021/03/31 12:59:15;;;;;;;30.40;14.02;;;20.40;49.40;;;;;;5085375;28;20079;-68
2021/03/31 13:01:40;;;;;;;28.23;13.60;;;20.40;49.10;;;;;;5086317;28;20047;-68
2021/03/31 13:04:06;;;;;;;33.60;15.13;;;20.60;51.10;;;;;;5089407;28;20040;-68